aviador You're here:

LFMH Decoded Metar

ST.-ETIENNE in FRANCE
Report Time2018-01-16 07:00:00
UTC Time2018-01-16 07:19:42
Flight Rules vfr VFR
Wind210° at 10 kt
W.Decomp.*RWY 18: 8.7 kt HW 4.8 kt RCW
W.Rank210° ranks 18
Current wind is above 210° avg. (6.4)
Visibility9999 m
Phenomena:Shower Rain
Clouds:Broken 044 Hf
Overcast 068 Hf
Expected CloudBase > 2,800 ft AGL from Temp-Dew spread
Ceiling4,400 ft
Temp11°C (ISA -1)
Dew Point04°C (62% RH)
AAT6.1°C
QNH1011 hPa
Density Alt1,339 ft
Elevation1,319 ft
Report Wrong Elevation
Raw Report
METAR LFMH 160700Z AUTO 21010KT 9999 BKN044 OVC068 11/04 Q1011 TEMPO
20015G25KT 4000 SHRA BKN025TCU=

Extra information for LFMH:More info

Metar Taf Metar & Taf Last 4 Metars F.Rules Stats Wind Profile Meteogram Temp Stats Airport Information Weather charts Add Link Nearby VenuesMetar ALERT Operation Metar Decoded Social comments